Time;durP1;ratioP1;P1;durP2;ratioP2;P2;SDS_P1;SDS_P2;PMS_P1;PMS_P2;Temp;Humidity;BMP_temperature;BMP_pressure;BME280_temperature;BME280_humidity;BME280_pressure;Samples;Min_cycle;Max_cycle;Signal;HPM_P1;HPM_P2
2021/10/15 00:02:23;;;;;;;11.20;7.05;;;;;;;15.01;64.30;99846.69;5092687;28;20405;-80
2021/10/15 00:04:56;;;;;;;10.82;7.05;;;;;;;14.99;64.20;99835.31;5092216;28;20135;-81
2021/10/15 00:07:23;;;;;;;9.52;6.78;;;;;;;15.02;64.16;99834.28;5092787;28;20059;-80
2021/10/15 00:09:54;;;;;;;12.07;7.28;;;;;;;15.00;64.18;99833.53;5092163;28;20059;-80
2021/10/15 00:12:20;;;;;;;9.93;6.80;;;;;;;15.01;64.16;99825.47;5092225;28;20052;-81
2021/10/15 00:14:47;;;;;;;8.93;6.60;;;;;;;15.01;64.21;99821.97;5092347;28;20056;-85
2021/10/15 00:20:27;;;;;;;9.95;6.95;;;;;;;15.00;64.08;99818.50;5093883;28;20486;-86
2021/10/15 00:22:54;;;;;;;15.63;7.40;;;;;;;14.98;64.02;99810.66;5092605;28;20055;-81
2021/10/15 00:29:05;;;;;;;11.93;6.28;;;;;;;14.98;64.25;99813.28;5093303;28;20089;-81
2021/10/15 00:31:32;;;;;;;13.93;6.63;;;;;;;14.96;64.05;99812.53;5092241;28;20052;-81
2021/10/15 00:33:59;;;;;;;9.75;6.85;;;;;;;14.95;64.09;99810.88;5092357;28;20056;-81
2021/10/15 00:36:29;;;;;;;10.27;6.45;;;;;;;14.94;63.96;99798.59;5092418;28;20044;-81
2021/10/15 00:38:56;;;;;;;9.35;6.22;;;;;;;14.94;63.96;99790.63;5092076;28;20056;-81
2021/10/15 00:41:23;;;;;;;9.15;6.70;;;;;;;14.94;64.04;99793.28;5092367;28;20402;-81
2021/10/15 00:47:14;;;;;;;10.20;6.18;;;;;;;14.93;64.00;99781.00;5093967;28;20059;-81
2021/10/15 00:49:40;;;;;;;10.35;6.30;;;;;;;14.92;64.05;99783.75;5091914;28;20490;-80
2021/10/15 00:52:30;;;;;;;8.52;5.82;;;;;;;14.87;64.05;99773.50;5091999;28;20059;-81
2021/10/15 00:54:57;;;;;;;9.10;5.95;;;;;;;14.91;63.89;99769.66;5091700;28;20055;-81
2021/10/15 00:57:27;;;;;;;8.75;6.60;;;;;;;14.89;63.85;99768.94;5092191;28;20048;-81
2021/10/15 00:59:53;;;;;;;8.90;5.85;;;;;;;14.89;63.97;99755.69;5092057;28;20433;-81
2021/10/15 01:02:20;;;;;;;12.40;6.10;;;;;;;14.89;63.86;99757.47;5092210;28;20489;-81
2021/10/15 01:04:47;;;;;;;8.15;5.63;;;;;;;14.87;63.89;99760.25;5091892;28;20060;-81
2021/10/15 01:07:15;;;;;;;12.73;6.20;;;;;;;14.85;63.79;99746.28;5091863;28;20062;-81
2021/10/15 01:09:42;;;;;;;9.20;5.72;;;;;;;14.84;63.79;99753.38;5091569;28;20055;-81
2021/10/15 01:12:09;;;;;;;8.70;5.38;;;;;;;14.83;63.92;99735.78;5091960;28;20052;-80
2021/10/15 01:14:36;;;;;;;6.85;4.97;;;;;;;14.83;63.82;99745.53;5091808;28;20060;-85
2021/10/15 01:17:46;;;;;;;9.88;5.30;;;;;;;14.78;63.76;99756.50;5091990;28;20411;-86
2021/10/15 01:20:24;;;;;;;6.65;4.68;;;;;;;14.81;63.63;99748.28;5097796;28;20517;-86
2021/10/15 01:23:20;;;;;;;9.10;5.60;;;;;;;14.83;63.76;99748.19;5092921;28;20038;-81
2021/10/15 01:25:50;;;;;;;8.32;5.25;;;;;;;14.81;63.65;99734.22;5092810;28;20145;-81
2021/10/15 01:31:40;;;;;;;9.05;5.82;;;;;;;14.81;63.66;99726.25;5097118;28;20054;-81
2021/10/15 01:34:07;;;;;;;11.70;5.78;;;;;;;14.79;63.65;99718.41;5095114;28;20056;-81
2021/10/15 01:39:57;;;;;;;7.60;4.80;;;;;;;14.78;63.77;99716.75;5096373;28;20048;-81
2021/10/15 01:45:10;;;;;;;6.15;4.82;;;;;;;14.76;63.50;99700.09;5096134;28;20064;-80
2021/10/15 01:47:37;;;;;;;10.90;5.15;;;;;;;14.75;63.61;99695.75;5095153;28;20474;-80
2021/10/15 01:50:07;;;;;;;9.70;5.00;;;;;;;14.73;63.52;99693.19;5100703;28;20051;-80
2021/10/15 01:52:34;;;;;;;6.13;4.53;;;;;;;14.75;63.59;99681.63;5113923;28;20047;-80
2021/10/15 01:55:00;;;;;;;7.47;4.70;;;;;;;14.74;63.44;99688.75;5115306;28;20501;-80
2021/10/15 01:58:03;;;;;;;8.38;4.43;;;;;;;14.70;63.41;99682.00;5115014;28;20064;-81
2021/10/15 02:00:30;;;;;;;5.95;4.38;;;;;;;14.75;63.38;99681.63;5104715;28;20036;-81
2021/10/15 02:02:57;;;;;;;11.65;4.70;;;;;;;14.75;63.31;99684.28;5094990;28;20059;-81
2021/10/15 02:06:02;;;;;;;7.85;4.68;;;;;;;14.69;63.15;99672.38;5094316;28;20056;-81
2021/10/15 02:08:29;;;;;;;6.47;4.20;;;;;;;14.73;63.29;99666.69;5094786;28;20474;-80
2021/10/15 02:10:55;;;;;;;7.93;4.05;;;;;;;14.71;63.26;99668.63;5108144;28;20051;-81
2021/10/15 02:13:22;;;;;;;6.88;4.70;;;;;;;14.71;63.20;99659.84;5115147;28;20409;-81
2021/10/15 02:15:49;;;;;;;6.55;3.97;;;;;;;14.69;63.20;99667.91;5114809;28;20056;-81
2021/10/15 02:18:23;;;;;;;7.22;4.05;;;;;;;14.65;62.67;99661.13;5114799;28;20055;-81
2021/10/15 02:20:50;;;;;;;7.80;4.32;;;;;;;14.67;63.15;99655.72;5101908;28;20052;-81
2021/10/15 02:23:17;;;;;;;9.05;4.47;;;;;;;14.66;63.01;99649.56;5094618;28;20055;-80
2021/10/15 02:25:43;;;;;;;8.07;4.70;;;;;;;14.65;62.95;99649.72;5094485;28;20490;-80
2021/10/15 02:28:10;;;;;;;11.70;4.18;;;;;;;14.64;63.14;99648.00;5094181;28;20056;-80
2021/10/15 02:30:37;;;;;;;10.30;4.30;;;;;;;14.64;63.06;99648.88;5103810;28;20486;-81
2021/10/15 02:33:12;;;;;;;5.45;4.15;;;;;;;14.60;62.75;99634.16;5116027;28;20059;-81
2021/10/15 02:35:39;;;;;;;9.88;4.07;;;;;;;14.63;63.14;99631.28;5114265;28;20051;-81
2021/10/15 02:38:06;;;;;;;8.23;4.28;;;;;;;14.62;63.12;99623.44;5113114;28;20058;-81
2021/10/15 02:40:47;;;;;;;5.57;4.05;;;;;;;14.57;62.94;99627.28;5105580;28;20078;-81
2021/10/15 02:43:13;;;;;;;5.85;3.83;;;;;;;14.61;63.02;99619.94;5094210;28;20060;-81
2021/10/15 02:45:40;;;;;;;6.55;3.70;;;;;;;14.61;62.97;99614.66;5094076;28;20052;-81
2021/10/15 02:48:43;;;;;;;7.65;4.35;;;;;;;14.57;62.97;99619.34;5094126;28;20394;-81
2021/10/15 02:51:10;;;;;;;5.85;4.10;;;;;;;14.61;62.81;99616.47;5106980;28;20048;-86
2021/10/15 02:53:38;;;;;;;8.68;4.20;;;;;;;14.60;62.88;99607.66;5114036;28;20058;-80
2021/10/15 02:56:06;;;;;;;5.05;3.63;;;;;;;14.59;62.92;99603.34;5114213;28;20055;-81
2021/10/15 02:58:43;;;;;;;4.57;3.75;;;;;;;14.56;62.73;99600.91;5113969;28;20062;-80
2021/10/15 03:01:10;;;;;;;6.07;4.20;;;;;;;14.58;62.80;99596.38;5099823;28;20052;-81
2021/10/15 03:03:46;;;;;;;8.52;4.03;;;;;;;14.55;62.81;99604.53;5093384;28;20513;-81
2021/10/15 03:06:13;;;;;;;10.45;4.22;;;;;;;14.56;62.78;99600.91;5093733;28;20399;-81
2021/10/15 03:08:39;;;;;;;6.30;3.88;;;;;;;14.56;62.74;99600.91;5093374;28;20052;-81
2021/10/15 03:11:28;;;;;;;6.55;3.80;;;;;;;14.51;62.74;99592.50;5105974;28;20055;-80
2021/10/15 03:13:55;;;;;;;6.40;3.70;;;;;;;14.54;62.86;99590.44;5113685;28;20054;-81
2021/10/15 03:16:21;;;;;;;7.68;4.05;;;;;;;14.52;62.54;99581.78;5113826;28;20057;-81
2021/10/15 03:19:39;;;;;;;6.72;3.95;;;;;;;14.45;62.34;99573.47;5113897;28;20451;-81
2021/10/15 03:22:06;;;;;;;6.68;3.60;;;;;;;14.49;62.48;99566.13;5093117;28;20063;-86
2021/10/15 03:24:32;;;;;;;7.57;3.63;;;;;;;14.47;62.45;99570.69;5093078;28;20054;-81
2021/10/15 03:27:27;;;;;;;5.85;3.75;;;;;;;14.41;62.62;99566.72;5093107;28;20051;-81
2021/10/15 03:29:54;;;;;;;5.30;3.22;;;;;;;14.45;62.33;99565.53;5098902;28;20058;-81
2021/10/15 03:32:21;;;;;;;5.65;3.67;;;;;;;14.44;62.39;99561.16;5113392;28;20051;-81
2021/10/15 03:35:10;;;;;;;7.75;3.80;;;;;;;14.39;62.43;99560.66;5113357;28;20055;-81
2021/10/15 03:37:37;;;;;;;8.23;3.70;;;;;;;14.42;62.31;99549.84;5114789;28;20355;-81
2021/10/15 03:40:06;;;;;;;5.38;3.78;;;;;;;14.40;62.30;99550.94;5107021;28;20410;-81
2021/10/15 03:42:34;;;;;;;5.93;3.85;;;;;;;14.38;61.94;99548.41;5093148;28;20044;-81
2021/10/15 03:45:03;;;;;;;6.95;4.43;;;;;;;14.36;62.25;99550.34;5092912;28;20406;-81
2021/10/15 03:47:29;;;;;;;7.15;4.50;;;;;;;14.35;62.14;99543.34;5092783;28;20058;-81
2021/10/15 03:50:40;;;;;;;7.15;4.15;;;;;;;14.31;62.04;99547.16;5097389;28;20047;-81
2021/10/15 03:53:07;;;;;;;9.13;4.57;;;;;;;14.32;62.18;99549.72;5114436;28;20541;-81
2021/10/15 03:55:34;;;;;;;7.22;4.20;;;;;;;14.32;62.14;99554.19;5112921;28;20140;-81
2021/10/15 03:58:15;;;;;;;7.50;3.78;;;;;;;14.26;62.00;99551.97;5113210;28;20044;-81
2021/10/15 04:00:42;;;;;;;5.55;4.22;;;;;;;14.29;62.24;99541.16;5101421;28;20109;-81
2021/10/15 04:03:09;;;;;;;7.15;4.60;;;;;;;14.29;62.31;99549.09;5092983;28;20387;-81
2021/10/15 04:05:36;;;;;;;6.03;4.53;;;;;;;14.27;62.34;99535.97;5092583;28;20486;-81
2021/10/15 04:08:02;;;;;;;8.68;5.18;;;;;;;14.27;62.31;99543.06;5092769;28;20397;-81
2021/10/15 04:11:15;;;;;;;6.63;4.57;;;;;;;14.22;62.49;99537.28;5092750;28;20052;-80
2021/10/15 04:13:42;;;;;;;8.70;4.43;;;;;;;14.25;62.31;99537.06;5092336;28;20401;-81
2021/10/15 04:16:09;;;;;;;7.03;4.05;;;;;;;14.23;62.03;99537.19;5092262;28;20059;-81
2021/10/15 04:18:36;;;;;;;9.15;4.18;;;;;;;14.20;62.37;99525.03;5092620;28;20486;-80
2021/10/15 04:21:03;;;;;;;11.95;5.55;;;;;;;14.19;62.48;99517.19;5106017;28;20051;-81
2021/10/15 04:23:30;;;;;;;6.80;4.63;;;;;;;14.17;62.55;99514.66;5112907;28;20051;-81
2021/10/15 04:25:56;;;;;;;7.43;4.20;;;;;;;14.16;62.47;99515.63;5112917;28;20058;-81
2021/10/15 04:28:23;;;;;;;6.88;4.63;;;;;;;14.15;62.53;99518.38;5112591;28;20055;-81
2021/10/15 04:31:22;;;;;;;7.30;4.43;;;;;;;14.10;62.82;99517.91;5101134;28;20407;-81
2021/10/15 04:33:50;;;;;;;7.03;4.28;;;;;;;14.15;62.58;99518.38;5092448;28;20044;-81
2021/10/15 04:36:16;;;;;;;8.05;4.82;;;;;;;14.13;62.74;99523.78;5092097;28;20058;-81
2021/10/15 04:42:10;;;;;;;6.78;4.55;;;;;;;14.12;62.75;99515.97;5093550;28;20048;-86
2021/10/15 04:44:36;;;;;;;9.40;4.97;;;;;;;14.11;62.84;99514.28;5092064;28;20414;-80
2021/10/15 04:47:03;;;;;;;8.02;4.88;;;;;;;14.10;62.82;99513.44;5092371;28;20052;-80
2021/10/15 04:49:30;;;;;;;8.88;4.55;;;;;;;14.08;62.95;99499.47;5092086;28;20106;-80
2021/10/15 04:51:57;;;;;;;8.27;4.95;;;;;;;14.08;62.93;99499.47;5112769;28;20383;-80
2021/10/15 04:54:23;;;;;;;8.77;4.72;;;;;;;14.08;63.12;99488.88;5112962;28;20730;-80
2021/10/15 04:56:50;;;;;;;8.27;5.25;;;;;;;14.09;63.06;99487.09;5112540;28;20398;-81
2021/10/15 04:59:49;;;;;;;6.78;4.97;;;;;;;14.03;63.22;99497.19;5112195;28;20040;-80
2021/10/15 05:02:15;;;;;;;8.55;5.03;;;;;;;14.07;63.00;99477.47;5095692;28;20060;-81
2021/10/15 05:04:42;;;;;;;7.90;4.88;;;;;;;14.07;62.96;99472.19;5096044;28;20088;-81
2021/10/15 05:10:32;;;;;;;9.17;4.97;;;;;;;14.05;62.99;99462.66;5097495;28;20051;-81
2021/10/15 05:12:59;;;;;;;7.80;4.82;;;;;;;14.02;63.18;99468.19;5095966;28;20651;-81
2021/10/15 05:15:51;;;;;;;8.95;4.90;;;;;;;13.94;63.54;99469.63;5095837;28;20060;-81
2021/10/15 05:18:18;;;;;;;12.30;5.32;;;;;;;13.98;63.40;99469.41;5095514;28;20056;-81
2021/10/15 05:20:45;;;;;;;9.75;5.72;;;;;;;13.95;63.50;99470.47;5109672;28;20100;-81
2021/10/15 05:23:34;;;;;;;7.82;5.28;;;;;;;13.89;63.80;99466.47;5117350;28;20405;-81
2021/10/15 05:26:01;;;;;;;9.68;5.82;;;;;;;13.93;63.63;99453.84;5116170;28;20183;-81
2021/10/15 05:28:28;;;;;;;6.82;5.28;;;;;;;13.90;63.61;99452.28;5117286;28;20051;-81
2021/10/15 05:31:19;;;;;;;9.40;5.70;;;;;;;13.87;64.13;99449.88;5101179;28;20388;-81
2021/10/15 05:33:45;;;;;;;7.05;5.10;;;;;;;13.91;63.82;99442.56;5095423;28;20055;-80
2021/10/15 05:36:12;;;;;;;10.77;5.70;;;;;;;13.91;63.72;99447.84;5095523;28;20408;-81
2021/10/15 05:38:38;;;;;;;11.85;5.88;;;;;;;13.89;64.00;99440.03;5097129;28;20052;-80
2021/10/15 05:41:05;;;;;;;7.28;5.22;;;;;;;13.90;64.14;99435.56;5110633;28;20070;-80
2021/10/15 05:43:32;;;;;;;7.32;5.43;;;;;;;13.90;64.09;99444.34;5115425;28;20054;-80
2021/10/15 05:45:59;;;;;;;10.07;6.18;;;;;;;13.91;64.05;99466.38;5115373;28;20048;-85
2021/10/15 05:48:25;;;;;;;12.30;5.70;;;;;;;13.91;64.20;99451.31;5115394;28;20047;-81
2021/10/15 05:54:27;;;;;;;10.50;5.60;;;;;;;13.94;64.20;99451.09;5096281;28;20414;-81
2021/10/15 06:03:25;;;;;;;12.27;5.68;;;;;;;13.99;64.31;99440.16;5116280;28;20047;-81
2021/10/15 06:14:27;;;;;;;11.15;5.70;;;;;;;14.02;64.34;99439.09;5095883;28;20181;-81
2021/10/15 06:20:36;;;;;;;8.93;5.25;;;;;;;14.01;64.46;99446.19;5095662;28;20042;-82
2021/10/15 06:23:06;;;;;;;10.90;6.28;;;;;;;14.00;64.53;99444.50;5106018;28;20404;-82
2021/10/15 06:25:36;;;;;;;6.65;5.65;;;;;;;14.03;64.57;99446.06;5114717;28;20052;-82
2021/10/15 06:28:04;;;;;;;7.63;5.70;;;;;;;14.02;64.67;99445.22;5111180;28;20474;-85
2021/10/15 06:30:50;;;;;;;12.30;6.13;;;;;;;14.00;64.98;99443.66;5094516;28;20060;-81
2021/10/15 06:33:17;;;;;;;9.82;5.95;;;;;;;14.05;64.59;99444.13;5094481;28;20052;-81
2021/10/15 06:35:44;;;;;;;8.77;6.45;;;;;;;14.06;64.57;99435.25;5094274;28;20386;-81
2021/10/15 06:38:18;;;;;;;10.85;5.55;;;;;;;14.04;64.74;99432.72;5098458;28;20114;-81
2021/10/15 06:40:46;;;;;;;7.75;5.90;;;;;;;14.08;64.76;99430.66;5114716;28;20151;-81
2021/10/15 06:43:12;;;;;;;12.00;6.18;;;;;;;14.10;64.53;99433.19;5114591;28;20051;-81
2021/10/15 06:46:00;;;;;;;12.05;6.65;;;;;;;14.06;65.05;99432.59;5114466;28;20053;-81
2021/10/15 06:48:26;;;;;;;9.52;6.03;;;;;;;14.11;64.76;99424.28;5107813;28;20051;-81
2021/10/15 06:50:53;;;;;;;11.27;6.38;;;;;;;14.12;64.70;99434.75;5094514;28;20055;-81
2021/10/15 06:53:23;;;;;;;9.43;6.47;;;;;;;14.12;65.02;99428.63;5094893;28;20055;-81
2021/10/15 06:55:49;;;;;;;10.63;6.68;;;;;;;14.14;64.91;99440.78;5093938;28;20052;-81
2021/10/15 06:58:17;;;;;;;10.70;6.47;;;;;;;14.15;64.82;99437.19;5098558;28;20039;-81
2021/10/15 07:07:56;;;;;;;11.85;6.68;;;;;;;14.20;64.98;99442.97;5113713;28;20069;-82
2021/10/15 07:10:23;;;;;;;8.20;6.20;;;;;;;14.22;64.89;99452.56;5093475;28;20055;-82
2021/10/15 07:16:38;;;;;;;12.00;6.65;;;;;;;14.24;64.99;99453.31;5094547;28;20094;-82
2021/10/15 07:19:05;;;;;;;12.20;7.70;;;;;;;14.24;65.35;99461.25;5104016;28;20126;-85
2021/10/15 07:21:31;;;;;;;12.93;7.40;;;;;;;14.25;65.40;99465.59;5093244;28;20052;-85
2021/10/15 07:24:42;;;;;;;10.98;7.20;;;;;;;14.19;66.22;99459.81;5092558;28;20052;-85
2021/10/15 07:27:08;;;;;;;9.27;7.07;;;;;;;14.24;65.45;99474.50;5093349;28;20394;-80
2021/10/15 07:29:35;;;;;;;13.43;7.45;;;;;;;14.22;65.52;99479.06;5093470;28;20055;-81
2021/10/15 07:32:27;;;;;;;12.80;8.23;;;;;;;14.12;66.81;99493.00;5093538;28;20052;-82
2021/10/15 07:34:53;;;;;;;13.80;8.52;;;;;;;14.12;65.80;99530.03;5094447;28;20370;-81
2021/10/15 07:37:44;;;;;;;10.55;7.97;;;;;;;14.04;66.98;99540.38;5093132;28;20474;-82
2021/10/15 07:40:11;;;;;;;11.82;7.95;;;;;;;14.04;66.25;99543.00;5099731;28;20043;-82
2021/10/15 07:42:38;;;;;;;11.77;8.27;;;;;;;13.99;66.72;99527.50;5111244;28;20602;-81
2021/10/15 07:45:44;;;;;;;12.13;7.93;;;;;;;13.92;68.68;99540.34;5113341;28;20047;-82
2021/10/15 07:48:10;;;;;;;11.25;7.13;;;;;;;13.96;67.27;99553.31;5113282;28;20056;-82
2021/10/15 07:51:27;;;;;;;8.93;6.10;;;;;;;13.91;68.59;99570.38;5112383;28;20054;-82
2021/10/15 07:53:54;;;;;;;7.20;5.85;;;;;;;13.96;67.49;99590.38;5114121;28;20051;-85
2021/10/15 07:56:20;;;;;;;4.68;3.13;;;;;;;13.96;67.25;99599.16;5113097;28;20044;-81
2021/10/15 07:59:16;;;;;;;2.90;2.13;;;;;;;13.91;67.97;99606.59;5112884;28;20050;-82
2021/10/15 08:01:44;;;;;;;4.57;1.83;;;;;;;13.94;66.88;99617.81;5093369;28;20478;-82
2021/10/15 08:04:26;;;;;;;2.25;1.20;;;;;;;13.89;67.45;99625.25;5092170;28;20059;-82
2021/10/15 08:06:53;;;;;;;2.30;1.00;;;;;;;13.91;66.66;99625.13;5092358;28;20051;-82
2021/10/15 08:09:20;;;;;;;2.28;0.95;;;;;;;13.88;66.89;99628.84;5092783;28;20074;-82
2021/10/15 08:11:56;;;;;;;1.58;0.88;;;;;;;13.84;67.58;99632.66;5093219;28;20066;-80
2021/10/15 08:14:23;;;;;;;2.33;0.90;;;;;;;13.86;66.89;99641.31;5092089;28;20502;-84
2021/10/15 08:16:51;;;;;;;2.35;0.80;;;;;;;13.84;67.01;99643.25;5092835;28;20058;-83
2021/10/15 08:19:37;;;;;;;0.85;0.65;;;;;;;13.85;66.99;99646.72;5093789;28;20051;-80
2021/10/15 08:22:04;;;;;;;1.48;0.60;;;;;;;13.85;67.02;99652.00;5112722;28;20066;-80
2021/10/15 08:24:35;;;;;;;4.13;0.60;;;;;;;13.83;67.43;99667.19;5113168;28;20048;-80
2021/10/15 08:27:03;;;;;;;4.50;0.70;;;;;;;13.85;67.15;99667.88;5113353;28;20090;-80
2021/10/15 08:29:30;;;;;;;1.30;0.60;;;;;;;13.85;67.24;99668.75;5112021;28;20047;-80
2021/10/15 08:32:08;;;;;;;1.60;0.50;;;;;;;13.82;67.64;99666.31;5107630;28;20058;-80
2021/10/15 08:34:35;;;;;;;1.98;0.60;;;;;;;13.86;66.99;99664.31;5112711;28;20056;-81
2021/10/15 08:37:17;;;;;;;2.30;0.70;;;;;;;13.81;67.78;99665.50;5116253;28;20405;-81
2021/10/15 08:43:39;;;;;;;1.15;0.50;;;;;;;13.86;67.52;99669.59;5104662;28;20152;-81
2021/10/15 08:49:46;;;;;;;2.58;0.40;;;;;;;13.92;66.86;99683.22;5115155;28;20067;-80
2021/10/15 08:52:14;;;;;;;1.02;0.60;;;;;;;13.93;66.87;99681.41;5096077;28;20052;-80
2021/10/15 08:57:58;;;;;;;0.88;0.65;;;;;;;13.94;66.83;99691.88;5097344;28;20478;-80
2021/10/15 09:00:30;;;;;;;0.50;0.33;;;;;;;13.96;67.05;99697.09;5102839;28;20098;-80
2021/10/15 09:03:18;;;;;;;2.63;0.60;;;;;;;13.93;67.46;99697.28;5116256;28;20055;-80
2021/10/15 09:06:18;;;;;;;1.23;0.60;;;;;;;13.93;67.40;99698.16;5116034;28;20059;-80
2021/10/15 09:08:46;;;;;;;1.25;0.63;;;;;;;13.98;66.87;99694.31;5116576;28;20075;-81
2021/10/15 09:15:06;;;;;;;2.60;0.73;;;;;;;13.98;67.09;99726.09;5117352;28;20061;-81
2021/10/15 09:21:18;;;;;;;1.38;0.57;;;;;;;13.98;66.73;99734.03;5098860;28;20445;-81
2021/10/15 09:23:52;;;;;;;1.58;0.57;;;;;;;13.98;67.11;99728.72;5095580;28;20056;-80
2021/10/15 09:26:23;;;;;;;2.25;0.75;;;;;;;13.99;66.89;99735.69;5096028;28;20052;-80
2021/10/15 09:28:50;;;;;;;3.53;1.00;;;;;;;14.00;67.06;99730.31;5095742;28;20474;-80
2021/10/15 09:31:24;;;;;;;1.45;0.82;;;;;;;14.01;67.33;99736.44;5113201;28;20474;-80
2021/10/15 09:33:54;;;;;;;3.22;0.90;;;;;;;14.07;67.40;99739.50;5115758;28;20092;-80
2021/10/15 09:36:21;;;;;;;3.85;0.95;;;;;;;14.13;67.29;99743.47;5115980;28;20062;-80
2021/10/15 09:39:25;;;;;;;2.35;0.82;;;;;;;14.16;67.77;99756.50;5115521;28;20054;-80
2021/10/15 09:41:53;;;;;;;3.60;1.02;;;;;;;14.31;67.76;99769.56;5095483;28;20471;-80
2021/10/15 09:44:31;;;;;;;1.50;0.80;;;;;;;14.37;67.17;99774.44;5094828;28;20064;-82
2021/10/15 09:47:30;;;;;;;4.68;1.20;;;;;;;14.44;66.91;99766.91;5094504;28;20133;-82
2021/10/15 09:50:24;;;;;;;7.25;1.27;;;;;;;14.52;66.34;99761.03;5080411;28;20482;-82
2021/10/15 09:53:32;;;;;;;3.38;1.00;;;;;;;14.57;66.71;99758.88;5115245;28;20044;-82
2021/10/15 09:56:02;;;;;;;4.07;0.90;;;;;;;14.67;66.51;99775.81;5113399;28;20051;-80
2021/10/15 09:58:29;;;;;;;4.25;0.95;;;;;;;14.72;66.62;99786.91;5115424;28;20432;-83
2021/10/15 10:00:56;;;;;;;4.50;0.90;;;;;;;14.77;66.46;99791.88;5109344;28;20056;-84
2021/10/15 10:03:30;;;;;;;4.90;0.90;;;;;;;14.78;65.86;99788.28;5115377;28;20478;-82
2021/10/15 10:06:10;;;;;;;4.55;0.88;;;;;;;14.80;66.10;99793.47;5115260;28;20509;-84
2021/10/15 10:08:38;;;;;;;2.78;0.70;;;;;;;14.86;66.03;99798.31;5114938;28;20046;-84
2021/10/15 10:11:05;;;;;;;3.83;1.15;;;;;;;14.90;65.91;99798.91;5114375;28;20055;-84
2021/10/15 10:13:42;;;;;;;3.10;0.95;;;;;;;14.91;65.93;99801.44;5115406;28;20138;-81
2021/10/15 10:16:10;;;;;;;3.65;0.70;;;;;;;15.00;66.31;99802.59;5115212;28;20065;-81
2021/10/15 10:18:42;;;;;;;4.93;1.05;;;;;;;15.07;66.57;99803.78;5115116;28;20474;-81
2021/10/15 10:21:18;;;;;;;3.08;0.80;;;;;;;15.16;65.95;99812.00;5100333;28;20562;-82
2021/10/15 10:24:12;;;;;;;5.40;1.27;;;;;;;15.22;65.98;99833.59;5094098;28;20048;-81
2021/10/15 10:26:53;;;;;;;3.15;0.77;;;;;;;15.35;66.02;99822.06;5094657;28;20056;-82
2021/10/15 10:29:20;;;;;;;4.43;1.10;;;;;;;15.47;66.25;99826.44;5094193;28;20059;-82
2021/10/15 10:32:16;;;;;;;4.50;1.13;;;;;;;15.54;65.35;99825.97;5094542;28;20491;-82
2021/10/15 10:34:43;;;;;;;3.45;0.90;;;;;;;15.70;65.25;99836.25;5094167;28;20426;-82
2021/10/15 10:37:12;;;;;;;5.50;1.35;;;;;;;15.79;64.91;99838.19;5094437;28;20417;-82
2021/10/15 10:40:08;;;;;;;5.07;1.10;;;;;;;15.87;63.92;99835.78;5094886;28;20044;-80
2021/10/15 10:43:21;;;;;;;4.30;1.15;;;;;;;15.97;63.63;99848.38;5114316;28;20062;-82
2021/10/15 10:46:17;;;;;;;6.07;1.20;;;;;;;16.06;63.27;99841.47;5113973;28;20052;-82
2021/10/15 10:48:50;;;;;;;5.22;1.30;;;;;;;16.14;63.11;99849.69;5115034;28;20048;-82
2021/10/15 10:51:30;;;;;;;5.90;1.35;;;;;;;16.18;63.11;99853.78;5099206;28;20452;-85
2021/10/15 10:54:25;;;;;;;5.90;1.45;;;;;;;16.21;62.55;99861.50;5093806;28;20062;-85
2021/10/15 10:56:53;;;;;;;6.85;1.85;;;;;;;16.30;62.54;99856.44;5093917;28;20048;-81
2021/10/15 10:59:25;;;;;;;7.20;1.38;;;;;;;16.31;62.27;99856.31;5092980;28;20059;-81
2021/10/15 11:02:14;;;;;;;8.32;1.50;;;;;;;16.35;62.07;99870.19;5094244;28;20058;-80
2021/10/15 11:04:41;;;;;;;6.32;1.63;;;;;;;16.49;62.59;99866.44;5093157;28;20199;-81
2021/10/15 11:07:20;;;;;;;9.07;1.90;;;;;;;16.59;62.23;99869.22;5093253;28;20048;-80
2021/10/15 11:09:57;;;;;;;5.70;1.85;;;;;;;16.67;60.92;99872.06;5095644;28;20044;-81
2021/10/15 11:12:26;;;;;;;8.57;1.42;;;;;;;16.74;60.26;99877.75;5115903;28;20052;-81
2021/10/15 11:18:21;;;;;;;6.97;1.85;;;;;;;16.87;61.23;99877.59;5115348;28;20043;-81
2021/10/15 11:21:09;;;;;;;8.10;1.48;;;;;;;17.03;62.03;99880.69;5098835;28;20048;-81
2021/10/15 11:23:39;;;;;;;7.85;1.40;;;;;;;17.43;65.52;99876.53;5093275;28;20051;-81
2021/10/15 11:26:06;;;;;;;4.82;1.42;;;;;;;17.97;67.86;99878.25;5093655;28;20062;-80
2021/10/15 11:28:33;;;;;;;7.88;1.40;;;;;;;18.60;65.82;99876.38;5094801;28;20044;-80
2021/10/15 11:31:07;;;;;;;6.28;1.70;;;;;;;19.18;58.51;99884.63;5098840;28;20055;-80
2021/10/15 11:33:38;;;;;;;7.32;1.60;;;;;;;19.57;57.60;99886.41;5093009;28;20052;-80
2021/10/15 11:39:31;;;;;;;7.22;1.90;;;;;;;20.17;56.81;99883.47;5097579;28;20043;-82
2021/10/15 11:41:58;;;;;;;5.80;1.50;;;;;;;20.33;55.13;99890.00;5113209;28;20047;-82
2021/10/15 11:45:11;;;;;;;8.10;1.77;;;;;;;20.37;53.30;99896.72;5113472;28;20508;-82
2021/10/15 11:47:37;;;;;;;6.80;1.33;;;;;;;20.48;53.73;99893.03;5114935;28;20454;-83
2021/10/15 11:50:09;;;;;;;6.43;1.33;;;;;;;20.43;51.51;99904.19;5105758;28;20039;-82
2021/10/15 11:52:55;;;;;;;8.10;1.60;;;;;;;20.27;51.24;99902.16;5092856;28;20051;-80
2021/10/15 11:55:28;;;;;;;7.25;1.55;;;;;;;20.16;51.58;99907.66;5092453;28;20058;-80
2021/10/15 12:04:04;;;;;;;4.60;1.30;;;;;;;19.24;50.89;99932.09;5114054;28;20051;-85
2021/10/15 12:06:33;;;;;;;4.85;1.38;;;;;;;18.93;51.75;99929.50;5113256;28;20054;-82
2021/10/15 12:09:23;;;;;;;5.22;1.77;;;;;;;18.53;50.96;99921.41;5101817;28;20052;-81
2021/10/15 12:12:18;;;;;;;9.70;1.83;;;;;;;18.32;51.87;99914.31;5092726;28;20138;-81
2021/10/15 12:14:45;;;;;;;7.68;1.95;;;;;;;18.20;53.04;99926.91;5092336;28;20044;-81
2021/10/15 12:17:12;;;;;;;8.73;2.15;;;;;;;18.09;53.11;99927.81;5092685;28;20459;-81
2021/10/15 12:19:47;;;;;;;6.32;1.58;;;;;;;18.01;53.01;99927.59;5109220;28;20043;-81
2021/10/15 12:22:20;;;;;;;5.90;1.52;;;;;;;17.94;52.94;99935.28;5112687;28;20059;-81
2021/10/15 12:24:50;;;;;;;10.43;1.85;;;;;;;17.97;54.04;99931.50;5112572;28;20053;-81
2021/10/15 12:27:23;;;;;;;10.48;2.33;;;;;;;18.19;54.80;99933.22;5112936;28;20061;-81
2021/10/15 12:30:05;;;;;;;9.75;1.88;;;;;;;18.68;55.37;99924.53;5094306;28;20056;-81
2021/10/15 12:32:34;;;;;;;11.00;2.30;;;;;;;19.37;55.91;99937.16;5092166;28;20051;-82
2021/10/15 12:35:04;;;;;;;9.00;2.00;;;;;;;20.12;57.11;99938.34;5092047;28;20106;-82
2021/10/15 12:37:33;;;;;;;9.82;2.20;;;;;;;20.93;54.13;99933.34;5092476;28;20056;-82
2021/10/15 12:40:13;;;;;;;9.85;2.30;;;;;;;21.69;51.77;99920.47;5110410;28;20055;-82
2021/10/15 12:42:41;;;;;;;7.60;2.20;;;;;;;22.41;52.40;99931.97;5112794;28;20116;-81
2021/10/15 12:45:11;;;;;;;11.60;2.20;;;;;;;23.06;50.59;99926.16;5112239;28;20044;-81
2021/10/15 12:48:05;;;;;;;10.88;2.90;;;;;;;23.68;49.04;99931.06;5112884;28;20393;-81
2021/10/15 12:50:35;;;;;;;11.23;2.72;;;;;;;24.29;46.75;99934.34;5092341;28;20406;-83
2021/10/15 12:53:17;;;;;;;8.75;2.20;;;;;;;24.69;44.68;99939.69;5092078;28;20114;-83
2021/10/15 12:55:56;;;;;;;6.57;2.03;;;;;;;24.91;42.84;99926.50;5090676;28;20607;-82
2021/10/15 12:58:26;;;;;;;9.77;2.53;;;;;;;24.87;41.71;99935.94;5092259;28;20044;-82
2021/10/15 13:01:00;;;;;;;8.95;2.17;;;;;;;24.55;41.17;99928.66;5092371;28;20048;-82
2021/10/15 13:03:28;;;;;;;9.63;2.40;;;;;;;24.20;41.67;99930.81;5092498;28;20391;-82
2021/10/15 13:06:05;;;;;;;10.00;2.47;;;;;;;23.67;41.62;99931.25;5092037;28;20052;-81
2021/10/15 13:08:32;;;;;;;7.10;2.22;;;;;;;23.29;42.20;99943.28;5098238;28;20047;-81
2021/10/15 13:11:10;;;;;;;11.18;2.72;;;;;;;22.75;42.75;99943.69;5112276;28;20047;-81
2021/10/15 13:13:37;;;;;;;8.45;2.35;;;;;;;22.43;43.44;99945.22;5111965;28;20051;-80
2021/10/15 13:16:03;;;;;;;8.65;2.33;;;;;;;22.07;43.48;99951.56;5112482;28;20062;-81
2021/10/15 13:18:42;;;;;;;9.90;2.45;;;;;;;21.67;43.83;99951.06;5107367;28;20062;-81
2021/10/15 13:21:09;;;;;;;11.18;2.40;;;;;;;21.46;44.37;99955.75;5109251;28;20070;-85
2021/10/15 13:23:37;;;;;;;7.03;1.90;;;;;;;21.20;44.21;99955.69;5116051;28;20059;-82
2021/10/15 13:26:42;;;;;;;11.07;2.45;;;;;;;20.88;45.15;99954.34;5117048;28;20051;-82
2021/10/15 13:29:08;;;;;;;10.35;3.25;;;;;;;20.68;45.16;99963.28;5115856;28;20047;-82
2021/10/15 13:31:35;;;;;;;11.82;2.53;;;;;;;20.48;45.47;99965.22;5095320;28;20048;-82
2021/10/15 13:37:53;;;;;;;15.48;2.95;;;;;;;20.03;46.08;99972.09;5096479;28;20108;-82